createdAt,value
2022-11-14T00:02:17.273Z,-0.7
2022-11-14T00:08:06.892Z,-0.4
2022-11-14T00:13:17.068Z,-0.5
2022-11-14T00:18:17.217Z,-0.2
2022-11-14T00:23:17.155Z,-0.2
2022-11-14T00:29:06.847Z,-0.1
2022-11-14T00:34:17.208Z,-0.1
2022-11-14T00:40:06.792Z,0.1
2022-11-14T00:45:06.856Z,0.1
2022-11-14T00:50:17.228Z,0.1
2022-11-14T00:56:06.589Z,0.2
2022-11-14T01:01:06.845Z,0.2
2022-11-14T01:06:16.950Z,0.4
2022-11-14T01:11:16.892Z,0.4
2022-11-14T01:16:16.943Z,0.3
2022-11-14T01:22:06.911Z,0.4
2022-11-14T01:27:17.129Z,0.6
2022-11-14T01:33:06.784Z,0.6
2022-11-14T01:38:06.937Z,0.6
2022-11-14T01:43:17.077Z,0.9
2022-11-14T01:48:17.109Z,0.7
2022-11-14T01:54:06.947Z,0.8
2022-11-14T01:59:17.072Z,0.7
2022-11-14T02:05:06.788Z,0.8
2022-11-14T02:10:06.929Z,1
2022-11-14T02:15:17.119Z,1.2
2022-11-14T02:21:06.885Z,1.1
2022-11-14T02:26:17.031Z,1.1
2022-11-14T02:31:17.085Z,1.2
2022-11-14T02:37:06.681Z,1.1
2022-11-14T02:42:06.917Z,1.4
2022-11-14T02:47:07.468Z,1.4
2022-11-14T02:52:17.068Z,1.3
2022-11-14T02:57:17.210Z,1.4
2022-11-14T03:03:06.609Z,1.5
2022-11-14T03:08:07.229Z,1.4
2022-11-14T03:13:17.253Z,1.6
2022-11-14T03:19:06.593Z,1.6
2022-11-14T03:24:06.628Z,1.5
2022-11-14T03:29:06.813Z,1.6
2022-11-14T03:34:16.871Z,1.6
2022-11-14T03:39:16.877Z,1.6
2022-11-14T03:45:06.722Z,1.5
2022-11-14T03:50:16.855Z,1.5
2022-11-14T03:55:16.854Z,1.3
2022-11-14T04:00:16.975Z,1.5
2022-11-14T04:06:06.708Z,1.4
2022-11-14T04:11:16.869Z,1.3
2022-11-14T04:17:06.724Z,1.1
2022-11-14T04:22:06.728Z,1.2
2022-11-14T04:27:06.769Z,1.2
2022-11-14T04:32:07.132Z,1.4
2022-11-14T04:37:17.168Z,1.4
2022-11-14T04:43:06.925Z,1.4
2022-11-14T04:48:17.043Z,1.5
2022-11-14T04:54:06.900Z,1.3
2022-11-14T04:59:20.830Z,1.6
2022-11-14T05:05:06.586Z,1.7
2022-11-14T05:10:06.598Z,1.9
2022-11-14T05:15:06.790Z,2
2022-11-14T05:20:17.081Z,1.9
2022-11-14T05:26:06.828Z,1.8
2022-11-14T05:31:16.854Z,1.7
2022-11-14T05:37:06.787Z,1.6
2022-11-14T05:42:07.503Z,1.6
2022-11-14T05:47:16.846Z,1.6
2022-11-14T05:52:17.112Z,1.6
2022-11-14T05:58:06.937Z,1.5
2022-11-14T06:03:17.014Z,1.4
2022-11-14T06:08:17.068Z,1.7
2022-11-14T06:14:10.890Z,1.7
2022-11-14T06:19:17.035Z,1.8
2022-11-14T06:25:06.623Z,1.6
2022-11-14T06:30:17.061Z,1.9
2022-11-14T06:35:26.295Z,1.8
2022-11-14T06:41:06.764Z,1.9
2022-11-14T06:46:06.865Z,2.1
2022-11-14T06:51:07.003Z,2.3
2022-11-14T06:56:16.844Z,2.4
2022-11-14T07:01:17.160Z,2.4
2022-11-14T07:07:06.808Z,2.5
2022-11-14T07:12:06.840Z,2.6
2022-11-14T07:17:16.820Z,2.6
2022-11-14T07:22:17.046Z,2.7
2022-11-14T07:28:06.670Z,2.8
2022-11-14T07:33:06.815Z,2.8
2022-11-14T07:38:16.956Z,2.9
2022-11-14T07:43:17.071Z,3
2022-11-14T07:49:06.747Z,3
2022-11-14T07:54:06.782Z,3.2
2022-11-14T07:59:06.812Z,3.3
2022-11-14T08:04:17.167Z,3.3
2022-11-14T08:10:06.819Z,3.3
2022-11-14T08:15:17.036Z,3.4
2022-11-14T08:21:06.783Z,3.6
2022-11-14T08:26:06.765Z,3.5
2022-11-14T08:31:17.051Z,3.5
2022-11-14T08:37:06.576Z,3.6
2022-11-14T08:42:06.658Z,3.6
2022-11-14T08:47:06.926Z,3.6
2022-11-14T08:52:17.208Z,3.7
2022-11-14T08:58:06.820Z,3.8
2022-11-14T09:03:06.993Z,3.8
2022-11-14T09:08:17.087Z,3.9
2022-11-14T09:14:06.542Z,4
2022-11-14T09:19:06.596Z,3.9
2022-11-14T09:24:06.695Z,3.9
2022-11-14T09:29:16.813Z,4.1
2022-11-14T09:35:06.521Z,4.1
2022-11-14T09:40:06.664Z,4
2022-11-14T09:45:06.763Z,3.8
2022-11-14T09:50:26.394Z,3.9
2022-11-14T09:56:06.685Z,4.1
2022-11-14T10:01:16.826Z,4
2022-11-14T10:06:16.828Z,4.2
2022-11-14T10:11:16.963Z,4.1
2022-11-14T10:17:10.498Z,4
2022-11-14T10:22:06.703Z,4.2
2022-11-14T10:27:06.773Z,4.1
2022-11-14T10:32:16.945Z,4.2
2022-11-14T10:38:07.077Z,4.3
2022-11-14T10:43:16.947Z,4.3
2022-11-14T10:48:17.000Z,4.4
2022-11-14T10:54:06.793Z,4.4
2022-11-14T10:59:06.818Z,4.6
2022-11-14T11:04:16.941Z,4.5
2022-11-14T11:09:17.077Z,4.6
2022-11-14T11:15:06.775Z,4.8
2022-11-14T11:20:07.695Z,4.9
2022-11-14T11:25:16.991Z,5
2022-11-14T11:31:06.851Z,4.9
2022-11-14T11:36:16.997Z,4.9
2022-11-14T11:41:25.817Z,5.1
2022-11-14T11:47:06.763Z,5.3
2022-11-14T11:52:06.856Z,5
2022-11-14T11:57:21.509Z,5.2
2022-11-14T12:03:06.906Z,5.2
2022-11-14T12:08:07.433Z,5.1
2022-11-14T12:13:16.978Z,5.2
2022-11-14T12:18:17.210Z,5.1
2022-11-14T12:23:17.300Z,5
2022-11-14T12:29:06.807Z,5
2022-11-14T12:34:17.055Z,5
2022-11-14T12:39:17.616Z,4.8
2022-11-14T12:45:06.825Z,5
2022-11-14T12:50:06.883Z,5
2022-11-14T12:55:17.015Z,5
2022-11-14T13:01:06.650Z,5
2022-11-14T13:06:06.602Z,5.1
2022-11-14T13:11:16.965Z,5
2022-11-14T13:16:16.979Z,4.9
2022-11-14T13:22:06.744Z,5
2022-11-14T13:27:06.724Z,5.1
2022-11-14T13:32:17.000Z,5.1
2022-11-14T13:37:17.029Z,5.1
2022-11-14T13:42:17.003Z,5.2
2022-11-14T13:47:17.006Z,5.2
2022-11-14T13:52:17.108Z,5
2022-11-14T13:58:06.609Z,5
2022-11-14T14:03:06.793Z,4.9
2022-11-14T14:08:16.994Z,5.1
2022-11-14T14:14:06.754Z,5
2022-11-14T14:19:18.671Z,5
2022-11-14T14:24:17.096Z,5.2
2022-11-14T14:30:06.812Z,5.2
2022-11-14T14:35:16.810Z,5.1
2022-11-14T14:40:16.867Z,5.2
2022-11-14T14:46:06.705Z,5.2
2022-11-14T14:51:06.768Z,5.2
2022-11-14T14:56:16.988Z,5.3
2022-11-14T15:01:25.103Z,5.3
2022-11-14T15:07:06.495Z,5.2
2022-11-14T15:12:06.721Z,5.2
2022-11-14T15:17:06.963Z,5.2
2022-11-14T15:22:17.013Z,5.4
2022-11-14T15:28:10.756Z,5.4
2022-11-14T15:33:06.522Z,5.4
2022-11-14T15:38:36.799Z,5.6
2022-11-14T15:43:06.589Z,5.8
2022-11-14T15:48:17.092Z,6
2022-11-14T15:54:06.473Z,6
2022-11-14T15:59:06.654Z,6.1
2022-11-14T16:04:06.676Z,6.2
2022-11-14T16:09:16.775Z,6.2
2022-11-14T16:14:16.830Z,6
2022-11-14T16:20:06.491Z,6.1
2022-11-14T16:25:06.465Z,6.1
2022-11-14T16:30:06.542Z,5.9
2022-11-14T16:35:06.666Z,6
2022-11-14T16:40:16.884Z,5.9
2022-11-14T16:46:06.637Z,6
2022-11-14T16:51:46.172Z,5.9
2022-11-14T16:56:16.921Z,5.9
2022-11-14T17:01:20.881Z,6
2022-11-14T17:06:16.980Z,6
2022-11-14T17:11:17.011Z,6
2022-11-14T17:16:17.152Z,6.1
2022-11-14T17:22:06.689Z,6.1
2022-11-14T17:27:16.976Z,6.2
2022-11-14T17:33:06.559Z,6.1
2022-11-14T17:38:16.984Z,6.2
2022-11-14T17:43:17.005Z,6.1
2022-11-14T17:49:06.696Z,6.1
2022-11-14T17:54:16.955Z,6
2022-11-14T17:59:26.227Z,5.9
2022-11-14T18:05:06.681Z,5.7
2022-11-14T18:10:07.551Z,5.6
2022-11-14T18:15:17.002Z,5.4
2022-11-14T18:21:06.836Z,5.3
2022-11-14T18:26:16.980Z,5.4
2022-11-14T18:32:06.677Z,5.3
2022-11-14T18:37:06.909Z,5.3
2022-11-14T18:42:16.805Z,5.1
2022-11-14T18:47:17.014Z,5.1
2022-11-14T18:53:06.734Z,5
2022-11-14T18:58:06.828Z,5
2022-11-14T19:03:16.858Z,4.8
2022-11-14T19:09:11.100Z,4.9
2022-11-14T19:14:16.755Z,4.7
2022-11-14T19:19:16.771Z,4.8
2022-11-14T19:24:16.993Z,4.6
2022-11-14T19:29:17.005Z,4.7
2022-11-14T19:35:06.782Z,4.6
2022-11-14T19:40:17.022Z,4.6
2022-11-14T19:46:06.690Z,4.7
2022-11-14T19:51:06.719Z,4.8
2022-11-14T19:56:06.973Z,4.7
2022-11-14T20:01:17.062Z,4.9
2022-11-14T20:06:17.020Z,4.9
2022-11-14T20:12:07.345Z,4.9
2022-11-14T20:17:16.954Z,5
2022-11-14T20:23:06.680Z,5.1
2022-11-14T20:28:06.696Z,5.2
2022-11-14T20:33:16.933Z,5.2
2022-11-14T20:38:16.949Z,5.4
2022-11-14T20:44:07.320Z,5.5
2022-11-14T20:49:06.707Z,5.4
2022-11-14T20:54:16.747Z,5.5
2022-11-14T20:59:17.034Z,5.6
2022-11-14T21:04:17.032Z,5.8
2022-11-14T21:09:27.266Z,6
2022-11-14T21:15:06.721Z,6.1
2022-11-14T21:20:06.674Z,6
2022-11-14T21:25:06.712Z,6
2022-11-14T21:30:16.976Z,6.2
2022-11-14T21:35:16.980Z,6.4
2022-11-14T21:41:06.741Z,6.5
2022-11-14T21:46:17.230Z,6.5
2022-11-14T21:52:06.502Z,6.7
2022-11-14T21:57:16.773Z,6.8
2022-11-14T22:03:06.460Z,6.8
2022-11-14T22:08:06.444Z,6.8
2022-11-14T22:13:06.533Z,6.9
2022-11-14T22:18:06.643Z,6.9
2022-11-14T22:23:16.778Z,6.9
2022-11-14T22:28:16.747Z,7
2022-11-14T22:33:16.796Z,7.3
2022-11-14T22:39:06.530Z,7.5
2022-11-14T22:44:16.766Z,7.6
2022-11-14T22:49:20.900Z,7.7
2022-11-14T22:54:16.834Z,7.8
2022-11-14T23:00:14.238Z,7.9
2022-11-14T23:05:16.869Z,8.1
2022-11-14T23:10:16.966Z,8
2022-11-14T23:15:16.962Z,8.1
2022-11-14T23:20:17.027Z,8.3
2022-11-14T23:26:06.688Z,8.4
2022-11-14T23:31:06.859Z,8.5
2022-11-14T23:36:16.804Z,8.6
2022-11-14T23:42:06.451Z,8.7
2022-11-14T23:47:06.692Z,8.6
2022-11-14T23:52:16.937Z,8.6
2022-11-14T23:58:06.722Z,8.7
